Time;durP1;ratioP1;P1;durP2;ratioP2;P2;SDS_P1;SDS_P2;PMS_P1;PMS_P2;Temp;Humidity;BMP_temperature;BMP_pressure;BME280_temperature;BME280_humidity;BME280_pressure;Samples;Min_cycle;Max_cycle;Signal;HPM_P1;HPM_P2
2022/05/13 00:01:31;;;;;;;8.35;2.42;;;;;;;15.43;53.65;101712.41;4996407;28;20051;-48
2022/05/13 00:03:58;;;;;;;8.23;2.75;;;;;;;15.43;53.65;101712.41;4995475;28;20042;-47
2022/05/13 00:06:26;;;;;;;6.72;2.50;;;;;;;15.42;53.96;101710.78;5004135;28;20054;-48
2022/05/13 00:08:54;;;;;;;11.35;3.13;;;;;;;15.40;53.80;101708.31;5013827;28;20046;-46
2022/05/13 00:11:21;;;;;;;11.40;3.28;;;;;;;15.36;53.95;101707.22;4977657;28;20045;-46
2022/05/13 00:13:49;;;;;;;7.93;2.70;;;;;;;15.35;54.42;101711.06;4999854;28;20136;-48
2022/05/13 00:16:17;;;;;;;9.60;2.97;;;;;;;15.36;54.34;101715.44;5014545;28;20042;-49
2022/05/13 00:18:44;;;;;;;8.73;2.80;;;;;;;15.34;54.44;101710.25;5014570;28;20045;-48
2022/05/13 00:21:12;;;;;;;8.60;3.03;;;;;;;15.32;54.65;101706.13;5012907;28;20042;-47
2022/05/13 00:23:40;;;;;;;11.88;3.55;;;;;;;15.29;54.59;101703.94;4988719;28;20037;-48
2022/05/13 00:26:07;;;;;;;10.15;3.03;;;;;;;15.27;54.79;101706.13;5014104;28;20049;-49
2022/05/13 00:28:35;;;;;;;10.57;3.05;;;;;;;15.23;55.08;101708.63;4996675;28;20121;-47
2022/05/13 00:31:04;;;;;;;9.65;3.13;;;;;;;15.22;55.63;101706.16;5015328;28;20501;-46
2022/05/13 00:33:33;;;;;;;12.27;3.83;;;;;;;15.18;55.83;101703.16;5007601;28;20429;-47
2022/05/13 00:36:00;;;;;;;11.05;3.33;;;;;;;15.17;55.92;101704.22;4977640;28;20053;-48
2022/05/13 00:38:28;;;;;;;9.57;3.05;;;;;;;15.16;56.31;101696.28;4994500;28;20520;-48
2022/05/13 00:40:55;;;;;;;11.07;2.92;;;;;;;15.15;56.14;101702.88;4995692;28;20046;-47
2022/05/13 00:43:41;;;;;;;9.07;3.22;;;;;;;15.16;55.97;101707.28;5009014;28;20041;-48
2022/05/13 00:46:08;;;;;;;11.95;3.38;;;;;;;15.12;56.46;101699.56;5014949;28;20068;-46
2022/05/13 00:48:36;;;;;;;8.00;2.45;;;;;;;15.11;56.33;101697.13;5015812;28;20042;-49
2022/05/13 00:51:08;;;;;;;9.95;3.03;;;;;;;15.08;56.42;101700.41;5006523;28;20516;-52
2022/05/13 00:53:36;;;;;;;12.20;2.97;;;;;;;15.04;56.24;101699.31;4992289;28;20046;-47
2022/05/13 00:56:05;;;;;;;7.70;2.38;;;;;;;15.01;56.34;101694.38;5014202;28;20042;-50
2022/05/13 00:58:35;;;;;;;11.02;3.28;;;;;;;14.94;56.58;101697.41;5013865;28;20033;-46
2022/05/13 01:01:03;;;;;;;12.23;3.22;;;;;;;14.89;56.81;101691.94;4994560;28;20125;-47
2022/05/13 01:03:42;;;;;;;8.70;3.20;;;;;;;14.84;56.95;101694.66;4987244;28;20042;-46
2022/05/13 01:06:30;;;;;;;8.32;3.20;;;;;;;14.82;56.88;101689.47;4992892;28;20047;-48
2022/05/13 01:09:12;;;;;;;10.57;3.28;;;;;;;14.81;56.75;101697.97;4990122;28;20053;-46
2022/05/13 01:11:42;;;;;;;12.95;2.95;;;;;;;14.78;56.98;101684.81;4983939;28;20065;-46
2022/05/13 01:14:15;;;;;;;8.90;2.97;;;;;;;14.78;56.86;101684.81;4976878;28;20092;-49
2022/05/13 01:19:29;;;;;;;;;;;;;;;14.70;56.82;101684.25;4994462;28;20045;-47
2022/05/13 01:21:58;;;;;;;9.13;3.10;;;;;;;14.71;56.81;101685.06;4987946;28;19928;-47
2022/05/13 01:24:26;;;;;;;10.07;2.97;;;;;;;14.69;56.71;101684.53;4993747;28;20042;-49
2022/05/13 01:26:53;;;;;;;10.10;2.80;;;;;;;14.69;56.55;101681.78;4993419;28;20069;-48
2022/05/13 01:29:21;;;;;;;11.88;2.95;;;;;;;14.65;56.81;101683.44;4994170;28;20050;-47
2022/05/13 01:31:50;;;;;;;9.77;3.20;;;;;;;14.63;56.84;101689.19;5010377;28;20059;-50
2022/05/13 01:34:18;;;;;;;13.30;2.70;;;;;;;14.64;56.94;101681.78;5012958;28;20049;-45
2022/05/13 01:36:45;;;;;;;14.95;3.55;;;;;;;14.63;57.16;101682.88;5012723;28;20049;-47
2022/05/13 01:39:13;;;;;;;11.50;2.90;;;;;;;14.65;57.23;101680.69;5013464;28;20053;-46
2022/05/13 01:41:41;;;;;;;11.45;3.38;;;;;;;14.64;57.28;101679.84;5002885;28;20516;-51
2022/05/13 01:44:08;;;;;;;10.68;3.38;;;;;;;14.66;57.34;101693.31;4977228;28;20161;-46
2022/05/13 01:46:36;;;;;;;9.27;3.10;;;;;;;14.65;57.50;101691.69;4993717;28;20042;-48
2022/05/13 01:49:04;;;;;;;9.68;2.97;;;;;;;14.64;57.69;101690.00;4993886;28;20034;-51
2022/05/13 01:51:31;;;;;;;13.38;3.40;;;;;;;14.64;57.64;101695.50;5010164;28;20064;-49
2022/05/13 01:54:00;;;;;;;11.80;3.47;;;;;;;14.61;57.68;101702.34;5014177;28;20057;-48
2022/05/13 01:56:27;;;;;;;6.90;3.00;;;;;;;14.58;57.93;101700.16;4999926;28;20044;-47
2022/05/13 01:58:55;;;;;;;9.02;3.28;;;;;;;14.58;57.78;101702.09;5003023;28;20489;-46
2022/05/13 02:01:22;;;;;;;10.55;3.30;;;;;;;14.53;57.91;101694.66;5009250;28;20489;-46
2022/05/13 02:03:50;;;;;;;8.68;3.08;;;;;;;14.53;57.85;101704.78;4997423;28;20050;-47
2022/05/13 02:06:23;;;;;;;9.52;3.35;;;;;;;14.53;57.84;101693.81;4997584;28;20444;-47
2022/05/13 02:08:54;;;;;;;12.75;3.20;;;;;;;14.51;57.39;101693.28;4974051;28;20049;-47
2022/05/13 02:11:23;;;;;;;9.57;3.15;;;;;;;14.52;57.25;101692.16;5003816;28;20072;-47
2022/05/13 02:13:52;;;;;;;6.88;2.40;;;;;;;14.47;57.13;101688.31;5015693;28;20069;-48
2022/05/13 02:16:20;;;;;;;11.45;3.08;;;;;;;14.45;57.14;101687.75;4993306;28;20042;-47
2022/05/13 02:18:47;;;;;;;11.00;3.00;;;;;;;14.43;57.31;101681.75;4996993;28;20046;-48
2022/05/13 02:21:17;;;;;;;13.77;3.13;;;;;;;14.38;57.23;101681.75;4997494;28;20046;-49
2022/05/13 02:23:45;;;;;;;10.30;3.17;;;;;;;14.32;57.76;101680.09;4997220;28;20044;-49
2022/05/13 02:26:14;;;;;;;10.18;3.33;;;;;;;14.31;57.80;101686.69;4997230;28;20054;-48
2022/05/13 02:28:42;;;;;;;11.73;3.00;;;;;;;14.31;58.16;101691.31;4996672;28;20043;-47
2022/05/13 02:31:10;;;;;;;10.68;3.13;;;;;;;14.29;58.23;101694.34;4979680;28;20481;-47
2022/05/13 02:33:38;;;;;;;13.00;3.55;;;;;;;14.30;58.44;101693.25;5028669;28;20103;-49
2022/05/13 02:36:07;;;;;;;10.52;2.85;;;;;;;14.30;58.42;101690.50;5018493;28;20041;-47
2022/05/13 02:38:35;;;;;;;13.38;3.63;;;;;;;14.29;58.27;101688.88;5019365;28;20485;-47
2022/05/13 02:41:13;;;;;;;9.65;3.25;;;;;;;14.26;58.38;101689.38;5016255;28;20046;-46
2022/05/13 02:43:50;;;;;;;11.43;2.97;;;;;;;14.27;58.28;101691.06;5009023;28;20483;-48
2022/05/13 02:46:21;;;;;;;10.15;3.28;;;;;;;14.25;58.44;101687.75;5017720;28;20407;-47
2022/05/13 02:48:49;;;;;;;10.52;3.20;;;;;;;14.22;58.70;101686.38;5033405;28;20044;-44
2022/05/13 02:51:17;;;;;;;10.90;3.50;;;;;;;14.18;58.67;101681.72;5035809;28;20514;-43
2022/05/13 02:53:46;;;;;;;8.45;2.85;;;;;;;14.16;59.37;101681.97;5034416;28;20500;-47
2022/05/13 02:56:14;;;;;;;11.52;3.70;;;;;;;14.16;59.32;101681.16;5001826;28;20041;-42
2022/05/13 02:58:45;;;;;;;10.95;3.80;;;;;;;14.15;59.67;101676.78;5015858;28;20049;-47
2022/05/13 03:01:14;;;;;;;14.57;3.50;;;;;;;14.13;59.49;101689.91;4998588;28;20053;-46
2022/05/13 03:03:44;;;;;;;11.88;3.78;;;;;;;14.15;59.71;101687.75;5016319;28;20038;-43
2022/05/13 03:06:11;;;;;;;11.05;3.70;;;;;;;14.14;59.95;101686.06;5035339;28;20523;-43
2022/05/13 03:08:39;;;;;;;10.70;3.42;;;;;;;14.10;60.34;101685.00;5033743;28;20052;-42
2022/05/13 03:11:07;;;;;;;15.10;3.85;;;;;;;14.10;60.25;101685.00;5018405;28;20504;-42
2022/05/13 03:13:35;;;;;;;13.10;3.88;;;;;;;14.09;60.60;101684.16;5012281;28;20071;-43
2022/05/13 03:16:14;;;;;;;13.38;4.32;;;;;;;14.10;60.55;101685.00;4996507;28;20069;-49
2022/05/13 03:18:42;;;;;;;10.25;3.55;;;;;;;14.09;60.72;101681.41;5021666;28;20523;-44
2022/05/13 03:21:10;;;;;;;9.70;3.40;;;;;;;14.09;60.84;101672.38;5015648;28;20457;-42
2022/05/13 03:23:41;;;;;;;12.35;4.15;;;;;;;14.01;61.46;101674.53;5016270;28;20046;-46
2022/05/13 03:26:12;;;;;;;13.93;3.72;;;;;;;13.99;61.69;101667.69;5034608;28;20045;-49
2022/05/13 03:28:40;;;;;;;12.50;3.80;;;;;;;13.97;62.11;101670.69;5018517;28;20124;-49
2022/05/13 03:31:08;;;;;;;12.02;3.45;;;;;;;13.95;61.97;101667.41;5027883;28;20052;-47
2022/05/13 03:33:35;;;;;;;13.63;4.03;;;;;;;13.96;62.09;101677.28;5033059;28;20037;-47
2022/05/13 03:36:03;;;;;;;16.48;4.28;;;;;;;13.95;62.82;101678.38;5016886;28;20049;-47
2022/05/13 03:38:31;;;;;;;11.90;3.53;;;;;;;13.93;62.34;101669.59;5007314;28;20270;-48
2022/05/13 03:40:59;;;;;;;11.18;3.28;;;;;;;13.95;62.51;101672.91;5017574;28;20045;-48
2022/05/13 03:43:26;;;;;;;13.80;4.57;;;;;;;13.94;62.80;101667.69;5035129;28;20049;-48
2022/05/13 03:45:54;;;;;;;13.40;3.97;;;;;;;13.94;62.66;101670.41;5030281;28;20038;-49
2022/05/13 03:48:21;;;;;;;13.98;4.07;;;;;;;13.91;62.89;101669.03;5013529;28;20077;-47
2022/05/13 03:50:49;;;;;;;11.93;3.38;;;;;;;13.90;62.91;101670.13;5015054;28;20041;-47
2022/05/13 03:53:17;;;;;;;12.45;4.70;;;;;;;13.85;63.41;101679.16;5014916;28;20053;-48
2022/05/13 03:55:45;;;;;;;13.63;3.97;;;;;;;13.85;63.38;101668.22;5015978;28;20508;-46
2022/05/13 03:58:14;;;;;;;15.27;3.60;;;;;;;13.86;63.83;101680.00;5015583;28;20141;-50
2022/05/13 04:00:42;;;;;;;13.18;4.05;;;;;;;13.82;64.03;101679.69;4997595;28;20045;-46
2022/05/13 04:03:10;;;;;;;12.27;4.00;;;;;;;13.81;64.18;101682.72;5013651;28;20460;-46
2022/05/13 04:11:09;;;;;;;14.07;4.68;;;;;;;13.75;64.22;101672.81;5015158;28;20054;-47
2022/05/13 04:16:23;;;;;;;17.52;4.88;;;;;;;13.71;65.47;101682.66;5015244;28;20064;-46
2022/05/13 04:18:53;;;;;;;18.10;5.03;;;;;;;13.67;65.23;101670.59;5001264;28;20084;-45
2022/05/13 04:21:24;;;;;;;15.23;4.72;;;;;;;13.62;65.96;101680.44;4994569;28;20059;-42
2022/05/13 04:23:54;;;;;;;13.90;4.85;;;;;;;13.63;66.04;101678.53;5033093;28;20416;-47
2022/05/13 04:26:22;;;;;;;20.42;4.32;;;;;;;13.66;66.07;101674.41;5014671;28;20042;-48
2022/05/13 04:28:50;;;;;;;13.95;4.38;;;;;;;13.67;66.35;101678.81;5016077;28;20141;-42
2022/05/13 04:31:23;;;;;;;11.82;4.18;;;;;;;13.70;66.09;101664.59;4997013;28;20048;-43
2022/05/13 04:33:52;;;;;;;11.82;4.25;;;;;;;13.72;66.41;101685.13;4997583;28;20037;-44
2022/05/13 04:36:21;;;;;;;12.60;3.58;;;;;;;13.75;65.84;101689.25;5014698;28;20416;-42
2022/05/13 04:38:49;;;;;;;12.40;4.20;;;;;;;13.74;66.35;101691.16;5010442;28;20046;-46
2022/05/13 04:44:04;;;;;;;13.85;4.22;;;;;;;13.75;66.31;101694.72;5013879;28;20037;-43
2022/05/13 04:46:32;;;;;;;14.43;5.10;;;;;;;13.75;66.57;101702.94;4980435;28;20053;-44
2022/05/13 04:49:00;;;;;;;17.00;4.22;;;;;;;13.77;66.74;101700.75;4991967;28;20128;-46
2022/05/13 04:51:27;;;;;;;15.73;4.80;;;;;;;13.76;66.91;101707.34;5011628;28;20048;-46
2022/05/13 04:53:56;;;;;;;21.20;5.30;;;;;;;13.76;66.81;101701.88;5013554;28;20053;-44
2022/05/13 04:56:25;;;;;;;17.42;5.05;;;;;;;13.76;67.00;101719.13;4996575;28;20049;-43
2022/05/13 04:58:53;;;;;;;13.38;3.88;;;;;;;13.72;66.88;101718.00;4992294;28;20038;-46
2022/05/13 05:01:22;;;;;;;13.40;4.45;;;;;;;13.72;67.04;101717.19;5013835;28;20084;-43
2022/05/13 05:03:50;;;;;;;13.82;4.38;;;;;;;13.74;67.15;101717.75;5013571;28;20080;-43
2022/05/13 05:06:19;;;;;;;14.10;4.35;;;;;;;13.74;67.21;101731.44;4994156;28;20053;-43
2022/05/13 05:08:47;;;;;;;15.88;4.28;;;;;;;13.75;67.49;101722.94;4961007;28;20050;-41
2022/05/13 05:11:16;;;;;;;15.15;4.78;;;;;;;13.72;67.32;101730.88;4994656;28;20050;-42
2022/05/13 05:13:47;;;;;;;16.05;4.55;;;;;;;13.71;67.79;101731.94;4996363;28;20042;-46
2022/05/13 05:16:15;;;;;;;12.45;4.03;;;;;;;13.71;67.45;101729.22;5013542;28;20068;-47
2022/05/13 05:18:44;;;;;;;15.50;4.57;;;;;;;13.72;67.83;101730.88;4998934;28;20049;-46
2022/05/13 05:21:12;;;;;;;15.55;4.60;;;;;;;13.77;67.67;101730.91;5011282;28;20049;-48
2022/05/13 05:23:42;;;;;;;18.98;4.32;;;;;;;13.74;67.69;101728.69;5013568;28;20048;-48
2022/05/13 05:26:11;;;;;;;13.10;4.32;;;;;;;13.88;67.86;101738.06;4996144;28;20053;-46
2022/05/13 05:28:39;;;;;;;12.07;3.78;;;;;;;13.91;67.70;101748.50;4992503;28;20476;-46
2022/05/13 05:31:08;;;;;;;16.80;5.43;;;;;;;13.77;68.10;101747.34;5002339;28;20046;-46
2022/05/13 05:33:36;;;;;;;11.68;4.10;;;;;;;13.74;68.18;101750.63;5011387;28;20398;-48
2022/05/13 05:36:04;;;;;;;14.80;4.35;;;;;;;13.77;68.64;101742.66;5015639;28;20049;-48
2022/05/13 05:38:32;;;;;;;10.90;4.65;;;;;;;13.78;68.17;101757.19;5014516;28;20052;-48
2022/05/13 05:41:01;;;;;;;13.45;4.45;;;;;;;13.77;68.77;101761.03;5010668;28;20034;-49
2022/05/13 05:43:29;;;;;;;14.95;4.65;;;;;;;13.71;69.55;101764.81;4995941;28;20515;-46
2022/05/13 05:45:58;;;;;;;21.52;5.43;;;;;;;13.68;69.54;101773.56;5013160;28;20048;-48
2022/05/13 05:48:26;;;;;;;17.50;4.90;;;;;;;13.75;69.34;101782.38;5014785;28;20041;-47
2022/05/13 05:50:56;;;;;;;17.13;5.05;;;;;;;13.74;69.34;101778.00;5015508;28;20484;-46
2022/05/13 05:59:00;;;;;;;17.15;4.72;;;;;;;13.64;70.24;101778.78;5018140;28;20042;-50
2022/05/13 06:01:28;;;;;;;16.52;4.80;;;;;;;13.76;70.42;101778.56;4992520;28;20074;-51
2022/05/13 06:03:56;;;;;;;18.27;5.63;;;;;;;13.68;70.63;101781.78;5025443;28;20048;-52
2022/05/13 06:06:24;;;;;;;15.10;4.85;;;;;;;13.71;71.21;101786.72;5029524;28;20037;-48
2022/05/13 06:08:57;;;;;;;20.92;5.70;;;;;;;13.71;70.71;101792.22;5027643;28;20103;-46
2022/05/13 06:11:24;;;;;;;18.25;5.75;;;;;;;13.76;71.04;101790.34;5016848;28;20041;-46
2022/05/13 06:13:53;;;;;;;19.80;6.15;;;;;;;13.93;70.62;101803.03;5011337;28;20124;-49
2022/05/13 06:16:22;;;;;;;21.88;6.32;;;;;;;13.83;70.81;101803.81;5011803;28;20053;-47
2022/05/13 06:18:51;;;;;;;19.85;6.10;;;;;;;13.92;70.56;101799.44;5027604;28;20555;-47
2022/05/13 06:21:18;;;;;;;18.27;5.65;;;;;;;13.92;70.94;101799.44;5011757;28;20044;-46
2022/05/13 06:23:46;;;;;;;16.17;5.35;;;;;;;13.89;70.64;101805.47;5009836;28;20528;-47
2022/05/13 06:26:13;;;;;;;17.95;4.95;;;;;;;13.93;71.15;101805.78;5009760;28;20510;-49
2022/05/13 06:28:41;;;;;;;16.23;4.85;;;;;;;13.97;71.05;101807.69;5010461;28;20041;-51
2022/05/13 06:31:09;;;;;;;20.00;6.95;;;;;;;13.96;71.43;101818.94;5028671;28;20045;-46
2022/05/13 06:33:37;;;;;;;21.77;5.60;;;;;;;13.80;72.22;101816.09;5013930;28;20077;-45
2022/05/13 06:36:05;;;;;;;20.05;5.60;;;;;;;13.83;71.90;101817.50;5001356;28;20054;-47
2022/05/13 06:38:32;;;;;;;19.30;5.00;;;;;;;13.89;72.26;101808.19;5008038;28;20387;-45
2022/05/13 06:41:00;;;;;;;14.13;4.63;;;;;;;14.12;71.54;101811.59;4995698;28;20045;-48
2022/05/13 06:43:28;;;;;;;17.60;6.25;;;;;;;14.06;71.64;101824.44;5014110;28;20053;-47
2022/05/13 06:45:56;;;;;;;14.80;5.25;;;;;;;13.90;72.05;101812.56;5012831;28;20061;-47
2022/05/13 06:48:24;;;;;;;17.15;6.65;;;;;;;13.84;72.54;101824.63;5012993;28;20156;-44
2022/05/13 06:50:51;;;;;;;20.27;5.75;;;;;;;13.87;73.01;101824.06;5013924;28;20050;-44
2022/05/13 06:53:20;;;;;;;21.40;6.13;;;;;;;14.03;72.36;101828.56;5015297;28;20854;-47
2022/05/13 06:55:49;;;;;;;17.30;5.88;;;;;;;14.00;72.18;101837.31;4998178;28;20057;-49
2022/05/13 06:58:17;;;;;;;15.07;4.88;;;;;;;14.03;71.75;101827.72;5032527;28;20068;-47
2022/05/13 07:00:45;;;;;;;20.98;6.15;;;;;;;13.99;72.49;101821.94;5015680;28;20037;-46
2022/05/13 07:03:17;;;;;;;20.45;6.20;;;;;;;13.95;72.89;101826.34;5033143;28;20145;-47
2022/05/13 07:05:45;;;;;;;14.02;4.20;;;;;;;14.04;72.63;101819.22;5034467;28;20045;-44
2022/05/13 07:08:13;;;;;;;19.08;6.03;;;;;;;14.03;73.30;101823.06;4998182;28;20053;-45
2022/05/13 07:10:42;;;;;;;20.35;6.82;;;;;;;14.05;72.90;101826.38;5015760;28;20125;-46
2022/05/13 07:13:12;;;;;;;18.15;6.00;;;;;;;13.94;73.53;101824.66;5020944;28;20041;-46
2022/05/13 07:15:40;;;;;;;24.63;6.53;;;;;;;13.96;73.49;101827.97;5035534;28;20515;-48
2022/05/13 07:18:07;;;;;;;18.85;6.22;;;;;;;13.96;73.75;101830.72;5033808;28;20045;-47
2022/05/13 07:20:35;;;;;;;17.75;6.10;;;;;;;14.03;73.93;101816.78;5031463;28;20053;-44
2022/05/13 07:23:04;;;;;;;18.25;6.47;;;;;;;14.04;73.56;101824.72;4998164;28;20104;-46
2022/05/13 07:25:32;;;;;;;17.60;5.45;;;;;;;14.15;73.35;101824.78;4997958;28;20048;-46
2022/05/13 07:27:59;;;;;;;17.75;6.10;;;;;;;14.12;73.09;101831.63;5015356;28;20081;-49
2022/05/13 07:30:27;;;;;;;16.95;5.88;;;;;;;14.26;72.91;101831.94;5004552;28;20033;-46
2022/05/13 07:32:55;;;;;;;18.02;6.35;;;;;;;14.32;72.84;101830.88;4999137;28;20140;-49
2022/05/13 07:35:22;;;;;;;18.30;5.70;;;;;;;14.26;72.92;101831.94;5015426;28;20121;-46
2022/05/13 07:37:50;;;;;;;16.40;4.90;;;;;;;14.26;72.29;101837.41;5015467;28;20038;-49
2022/05/13 07:43:05;;;;;;;16.08;4.88;;;;;;;14.29;72.28;101834.16;5015023;28;20467;-48
2022/05/13 07:45:33;;;;;;;15.50;6.10;;;;;;;14.46;71.35;101848.47;5016285;28;20042;-46
2022/05/13 07:48:02;;;;;;;18.73;5.78;;;;;;;14.39;71.71;101842.41;5014877;28;20048;-48
2022/05/13 07:50:30;;;;;;;15.68;4.97;;;;;;;14.42;70.84;101852.84;5007459;28;20045;-47
2022/05/13 07:52:58;;;;;;;16.85;5.30;;;;;;;14.46;70.23;101840.25;5015378;28;20464;-47
2022/05/13 07:55:26;;;;;;;17.17;4.97;;;;;;;14.56;69.84;101844.16;5015098;28;20054;-51
2022/05/13 07:57:54;;;;;;;16.60;4.78;;;;;;;14.65;69.58;101842.53;4998504;28;20129;-48
2022/05/13 08:00:26;;;;;;;13.10;4.45;;;;;;;14.63;68.93;101844.72;5000883;28;20037;-47
2022/05/13 08:02:57;;;;;;;15.98;4.10;;;;;;;14.62;69.09;101854.03;5034013;28;20041;-46
2022/05/13 08:05:26;;;;;;;13.35;4.10;;;;;;;14.64;68.57;101849.91;5034345;28;20479;-46
2022/05/13 08:08:00;;;;;;;15.55;5.13;;;;;;;14.64;68.92;101838.94;5034523;28;20107;-47
2022/05/13 08:10:29;;;;;;;17.73;5.15;;;;;;;14.67;69.04;101848.56;5011423;28;20089;-52
2022/05/13 08:12:56;;;;;;;17.42;5.18;;;;;;;14.70;68.66;101848.03;5013671;28;20038;-51
2022/05/13 08:15:24;;;;;;;14.82;4.25;;;;;;;14.63;69.09;101852.94;5015288;28;20072;-47
2022/05/13 08:17:54;;;;;;;14.75;4.20;;;;;;;14.64;68.54;101854.59;5034524;28;20057;-55
2022/05/13 08:20:22;;;;;;;13.40;4.20;;;;;;;14.60;68.77;101847.97;5016027;28;20041;-51
2022/05/13 08:22:50;;;;;;;16.92;4.55;;;;;;;14.55;68.71;101857.03;5014753;28;20045;-47
2022/05/13 08:25:18;;;;;;;21.30;4.75;;;;;;;14.57;68.84;101859.50;5030443;28;20034;-49
2022/05/13 08:27:45;;;;;;;18.98;4.63;;;;;;;14.58;68.76;101855.69;5014161;28;20042;-51
2022/05/13 08:30:14;;;;;;;12.32;4.07;;;;;;;14.59;68.90;101860.06;5013795;28;20056;-49
2022/05/13 08:32:43;;;;;;;13.93;4.00;;;;;;;14.61;69.38;101866.91;5033384;28;20412;-49
2022/05/13 08:35:12;;;;;;;16.52;4.85;;;;;;;14.58;69.34;101872.97;5020985;28;20061;-48
2022/05/13 08:37:47;;;;;;;17.10;4.50;;;;;;;14.54;69.46;101877.31;5017374;28;20095;-49
2022/05/13 08:40:22;;;;;;;10.93;3.50;;;;;;;14.59;70.30;101868.28;5026879;28;20504;-49
2022/05/13 08:42:50;;;;;;;14.52;4.15;;;;;;;14.54;69.10;101871.00;5014151;28;20497;-48
2022/05/13 08:45:20;;;;;;;13.77;4.32;;;;;;;14.63;68.46;101877.63;5001659;28;20044;-47
2022/05/13 08:47:54;;;;;;;19.17;4.95;;;;;;;14.59;68.11;101873.78;5033763;28;20519;-48
2022/05/13 08:50:59;;;;;;;12.95;4.15;;;;;;;14.69;67.79;101868.31;5019875;28;20030;-50
2022/05/13 08:53:38;;;;;;;14.80;4.43;;;;;;;14.84;67.08;101878.50;4937522;29;20051;-47
2022/05/13 08:56:11;;;;;;;16.63;3.80;;;;;;;14.94;66.79;101878.53;5010056;28;20042;-48
2022/05/13 08:59:05;;;;;;;19.27;4.00;;;;;;;14.94;66.21;101873.06;5016065;28;20041;-48
2022/05/13 09:01:36;;;;;;;16.02;4.10;;;;;;;14.99;67.04;101883.22;5014930;28;20546;-49
2022/05/13 09:04:08;;;;;;;17.48;4.15;;;;;;;15.02;66.98;101877.19;5015688;28;20045;-49
2022/05/13 09:06:40;;;;;;;15.15;4.45;;;;;;;15.00;66.90;101890.34;5015853;28;20068;-51
2022/05/13 09:09:10;;;;;;;13.40;4.47;;;;;;;14.82;67.07;101892.50;5007137;28;20042;-45
2022/05/13 09:11:54;;;;;;;12.65;3.40;;;;;;;14.73;67.46;101890.56;5016668;28;20042;-48
2022/05/13 09:14:33;;;;;;;16.40;4.28;;;;;;;14.64;67.61;101884.75;5029526;28;20045;-50
2022/05/13 09:17:24;;;;;;;16.05;4.47;;;;;;;14.76;67.93;101885.34;5014286;28;20049;-46
2022/05/13 09:20:11;;;;;;;15.18;4.47;;;;;;;14.81;67.25;101901.81;5014872;28;20103;-50
2022/05/13 09:22:45;;;;;;;17.38;4.57;;;;;;;14.78;67.32;101899.63;5033079;28;20068;-48
2022/05/13 09:25:43;;;;;;;16.67;4.40;;;;;;;14.74;67.12;101887.53;5006796;28;20213;-49
2022/05/13 09:28:13;;;;;;;15.10;4.15;;;;;;;14.87;66.38;101897.19;5012795;28;20049;-48
2022/05/13 09:30:50;;;;;;;12.45;3.67;;;;;;;14.98;66.10;101906.25;5020182;28;20041;-46
2022/05/13 09:33:25;;;;;;;12.68;3.90;;;;;;;15.11;65.44;101903.00;5032377;28;20049;-48
2022/05/13 09:35:59;;;;;;;17.13;4.68;;;;;;;15.14;64.04;101913.44;5022307;28;20527;-51
2022/05/13 09:38:30;;;;;;;12.05;3.55;;;;;;;15.15;65.45;101895.84;5013492;28;20050;-48
2022/05/13 09:41:05;;;;;;;10.77;3.45;;;;;;;15.30;65.10;101895.88;5004227;28;20037;-47
2022/05/13 09:43:50;;;;;;;13.57;3.65;;;;;;;15.32;64.99;101893.69;5033023;28;20488;-51
2022/05/13 09:46:31;;;;;;;14.27;3.78;;;;;;;15.46;63.19;101895.88;5032720;28;20041;-49
2022/05/13 09:49:06;;;;;;;13.02;3.97;;;;;;;15.50;62.62;101894.22;5031113;28;20563;-48
2022/05/13 09:51:55;;;;;;;12.35;3.15;;;;;;;15.53;61.86;101902.72;5014167;28;20526;-48
2022/05/13 09:54:33;;;;;;;13.18;3.47;;;;;;;15.52;60.45;101900.28;5015636;28;20049;-48
2022/05/13 09:57:12;;;;;;;8.27;3.28;;;;;;;15.50;62.13;101894.22;5032645;28;20492;-48
2022/05/13 09:59:55;;;;;;;15.52;3.70;;;;;;;15.46;60.74;101893.13;5029778;28;20040;-49
2022/05/13 10:02:28;;;;;;;11.23;3.58;;;;;;;15.43;60.83;101890.94;5022863;28;20455;-50
2022/05/13 10:05:21;;;;;;;12.38;4.10;;;;;;;15.51;60.84;101904.13;5032921;28;20041;-51
2022/05/13 10:07:51;;;;;;;12.10;3.97;;;;;;;15.51;59.86;101895.88;5024588;28;20412;-45
2022/05/13 10:16:18;;;;;;;12.88;3.35;;;;;;;15.52;57.91;101903.84;5028694;28;20048;-49
2022/05/13 10:18:53;;;;;;;11.70;2.80;;;;;;;15.52;57.49;101894.78;5031120;28;20033;-49
2022/05/13 10:21:45;;;;;;;8.93;2.70;;;;;;;15.62;56.79;101897.53;5001800;28;20061;-51
2022/05/13 10:24:40;;;;;;;10.73;3.20;;;;;;;15.60;56.10;101896.97;4322895;28;10000734;-49
2022/05/13 10:27:12;;;;;;;14.23;3.40;;;;;;;15.67;56.29;101896.69;5016910;28;20128;-48
2022/05/13 10:29:45;;;;;;;9.68;3.08;;;;;;;15.69;56.30;101889.81;4998677;28;20507;-47
2022/05/13 10:32:27;;;;;;;8.82;2.47;;;;;;;15.70;56.54;101897.00;4998980;28;20049;-47
2022/05/13 10:34:57;;;;;;;12.60;4.43;;;;;;;15.84;56.83;101899.19;5015380;28;20132;-47
2022/05/13 10:37:33;;;;;;;17.55;7.13;;;;;;;15.96;57.70;101891.47;5015265;28;20049;-50
2022/05/13 10:40:14;;;;;;;12.98;3.28;;;;;;;15.94;55.56;101902.72;5013742;28;20046;-48
2022/05/13 10:42:44;;;;;;;10.38;3.25;;;;;;;15.95;55.39;101895.31;5015734;28;20128;-50
2022/05/13 10:45:27;;;;;;;11.63;2.78;;;;;;;15.98;55.53;101886.53;5014746;28;20132;-49
2022/05/13 10:47:56;;;;;;;9.57;3.10;;;;;;;16.03;55.26;101886.50;5024677;28;20045;-48
2022/05/13 10:50:36;;;;;;;10.52;2.67;;;;;;;16.11;55.73;101899.66;5008735;28;20409;-50
2022/05/13 10:53:15;;;;;;;11.98;3.58;;;;;;;16.13;54.70;101886.47;5013266;28;20108;-49
2022/05/13 10:55:59;;;;;;;13.00;2.85;;;;;;;16.11;55.15;101898.84;5013091;28;20045;-50
2022/05/13 10:58:57;;;;;;;8.65;3.38;;;;;;;16.09;55.09;101893.66;5017669;28;20064;-49
2022/05/13 11:01:44;;;;;;;13.13;3.10;;;;;;;16.06;54.52;101896.94;5021908;28;20034;-48
2022/05/13 11:04:36;;;;;;;11.40;3.35;;;;;;;16.22;54.56;101894.97;5015232;28;20080;-44
2022/05/13 11:07:15;;;;;;;13.07;3.55;;;;;;;16.31;54.33;101898.81;5032011;28;20041;-48
2022/05/13 11:10:01;;;;;;;8.38;2.85;;;;;;;16.36;53.54;101900.72;5028460;28;20463;-48
2022/05/13 11:12:32;;;;;;;12.40;3.17;;;;;;;16.34;54.32;101905.66;4984150;28;20081;-48
2022/05/13 11:15:20;;;;;;;9.85;2.80;;;;;;;16.27;54.03;101902.38;5012534;28;20050;-48
2022/05/13 11:18:26;;;;;;;19.45;3.38;;;;;;;16.27;54.70;101894.13;4996192;28;20049;-47
2022/05/13 11:21:17;;;;;;;11.25;4.05;;;;;;;16.30;54.69;101890.81;5012391;28;20061;-48
2022/05/13 11:27:47;;;;;;;12.10;3.28;;;;;;;16.55;55.28;101898.97;4985529;28;20072;-49
2022/05/13 11:30:43;;;;;;;15.13;4.10;;;;;;;16.70;54.32;101889.81;5012937;28;20133;-50
2022/05/13 11:33:20;;;;;;;9.82;3.30;;;;;;;16.73;53.71;101896.69;5020452;28;20056;-48
2022/05/13 11:36:26;;;;;;;11.27;3.17;;;;;;;16.66;53.14;101897.00;5032283;28;20077;-49
2022/05/13 11:39:12;;;;;;;8.50;2.80;;;;;;;16.60;52.47;101895.38;5027023;28;20393;-48
2022/05/13 11:42:10;;;;;;;12.02;2.72;;;;;;;16.56;52.75;101899.78;5029600;28;20099;-46
2022/05/13 11:45:15;;;;;;;12.55;2.72;;;;;;;16.55;51.96;101896.22;5018241;28;20488;-48
2022/05/13 11:47:59;;;;;;;12.45;2.60;;;;;;;16.58;52.48;101892.91;5018327;28;20069;-46
2022/05/13 11:50:29;;;;;;;5.95;2.70;;;;;;;16.61;50.48;101892.34;5015673;28;20041;-51
2022/05/13 11:52:58;;;;;;;11.43;3.22;;;;;;;16.72;52.14;101898.63;4998003;28;20412;-47
2022/05/13 11:55:41;;;;;;;12.70;3.22;;;;;;;16.75;51.15;101898.03;5000101;28;20472;-50
2022/05/13 11:58:33;;;;;;;8.85;2.85;;;;;;;16.74;52.45;101901.91;5034483;28;20072;-49
2022/05/13 12:01:00;;;;;;;10.60;2.53;;;;;;;16.82;52.16;101897.78;4996197;28;20046;-52
2022/05/13 12:03:28;;;;;;;9.00;2.70;;;;;;;16.90;51.87;101896.34;4997492;28;20093;-50
2022/05/13 12:06:15;;;;;;;7.90;2.67;;;;;;;16.98;50.43;101904.84;4997454;28;20385;-51
2022/05/13 12:08:47;;;;;;;8.98;2.58;;;;;;;16.98;50.46;101896.59;4998309;28;20049;-50
2022/05/13 12:11:36;;;;;;;7.80;2.22;;;;;;;16.96;49.47;101895.22;5015769;28;20408;-47
2022/05/13 12:14:04;;;;;;;9.20;2.40;;;;;;;16.98;49.59;101895.75;4997086;28;20056;-48